Latest Weather Observations for Tindal

IDD60801

Issued at 9:01 pm CST Tuesday 4 August 2015 (issued every 30 minutes, with the page automatically refreshed every 10 minutes)

About weather observations | Map of weather stations | Latest weather observations for NT | Other Formats
Station Details ID: 014932 Name: TINDAL RAAF Lat: -14.52 Lon: 132.38 Height: 133.6 m
Data from the previous 72 hours. | See also: Recent months at Tindal
Date/Time
CST
Temp
°C
App
Temp
°C
Dew
Point
Rel
Hum
%
Delta-T
°C
Wind Press
QNH
hPa
Press
MSL
hPa
Rain
since 9 am
mm
Dir
 
Spd
km/h
Gust
km/h
Spd
kts
Gust
kts
04/09:00pm 18.5 15.8 5.7 43 6.3 SE 9 11 5 6 1016.4 1015.8 0.0
04/08:30pm 19.5 16.8 5.6 40 6.9 SE 9 11 5 6 1016.0 - 0.0
04/08:00pm 20.1 16.9 5.0 37 7.4 SE 11 13 6 7 1015.8 - 0.0
04/07:30pm 22.7 20.2 4.7 31 8.9 ESE 7 9 4 5 1015.4 - 0.0
04/07:00pm 24.6 21.5 3.8 26 10.3 E 9 11 5 6 1015.0 - 0.0
04/06:30pm 26.1 22.3 4.0 24 11.1 ESE 13 17 7 9 1014.7 - 0.0
04/06:00pm 28.2 22.9 3.1 20 12.6 ESE 20 28 11 15 1014.5 1014.0 0.0
04/05:30pm 29.0 23.9 3.1 19 13.0 ESE 19 28 10 15 1014.3 - 0.0
04/05:00pm 29.6 23.6 3.5 19 13.3 SE 24 35 13 19 1014.2 - 0.0
04/04:30pm 29.9 23.8 3.0 18 13.6 E 24 32 13 17 1014.2 - 0.0
04/04:00pm 30.4 24.9 4.2 19 13.6 SE 22 35 12 19 1014.3 - 0.0
04/03:30pm 30.6 25.6 4.4 19 13.6 SSE 20 35 11 19 1014.6 - 0.0
04/03:00pm 29.7 24.3 4.4 20 13.1 SE 22 30 12 16 1015.0 1014.5 0.0
04/02:30pm 29.8 24.0 4.4 20 13.1 SE 24 33 13 18 1015.5 - 0.0
04/02:00pm 30.3 25.8 4.1 19 13.5 SE 17 32 9 17 1015.9 - 0.0
04/01:30pm 29.9 24.0 3.8 19 13.4 ESE 24 28 13 15 1016.6 - 0.0
04/01:00pm 28.6 23.1 4.2 21 12.5 ESE 22 30 12 16 1017.3 - 0.0
04/12:30pm 28.0 22.8 3.7 21 12.3 SE 20 32 11 17 1018.0 - 0.0
04/12:00pm 27.6 22.4 3.3 21 12.1 SE 20 32 11 17 1018.5 1017.9 0.0
04/11:30am 26.5 21.2 3.1 22 11.6 ESE 20 26 11 14 1019.0 - 0.0
04/11:00am 24.8 19.6 3.5 25 10.5 SE 20 28 11 15 1019.5 - 0.0
04/10:30am 24.1 18.1 3.4 26 10.1 ESE 24 32 13 17 1019.9 - 0.0
04/10:00am 23.2 16.8 3.2 27 9.7 ESE 26 35 14 19 1020.0 - 0.0
04/09:30am 22.3 15.5 2.9 28 9.3 SE 28 35 15 19 1020.0 - 0.0
04/09:00am 21.1 14.7 3.3 31 8.5 SE 26 37 14 20 1019.7 1019.2 0.0
04/08:30am 20.1 14.6 3.8 34 7.8 SE 22 30 12 16 1019.6 - 0.0
04/08:00am 18.9 14.1 4.7 39 6.9 SE 19 26 10 14 1019.4 - 0.0
04/07:30am 16.0 12.7 6.2 52 4.8 SE 13 17 7 9 1019.0 - 0.0
04/07:00am 14.8 11.9 6.4 57 4.1 SE 11 13 6 7 1018.7 - 0.0
04/06:30am 14.9 12.0 6.5 57 4.1 SE 11 13 6 7 1018.2 - 0.0
04/06:00am 15.1 11.9 6.7 57 4.1 SE 13 13 7 7 1017.9 1017.3 0.0
04/05:30am 15.8 12.6 7.0 56 4.4 SE 13 15 7 8 1017.6 - 0.0
04/05:00am 16.4 12.9 7.1 54 4.6 SE 15 15 8 8 1017.4 - 0.0
04/04:30am 17.0 13.6 7.6 54 4.8 SE 15 17 8 9 1017.1 - 0.0
04/04:00am 17.7 14.8 8.0 53 5.0 SE 13 17 7 9 1016.9 - 0.0
04/03:30am 17.7 14.8 8.0 53 5.0 SE 13 15 7 8 1017.0 - 0.0
04/03:00am 19.2 15.9 8.2 49 5.7 SE 15 19 8 10 1017.0 1016.4 0.0
04/02:30am 20.0 16.5 8.7 48 6.0 SE 17 24 9 13 1016.9 - 0.0
04/02:00am 20.6 16.7 8.6 46 6.3 SE 19 24 10 13 1017.0 - 0.0
04/01:30am 20.7 16.9 9.0 47 6.2 SSE 19 22 10 12 1017.2 - 0.0
04/01:00am 20.8 17.2 9.7 49 6.0 SSE 19 24 10 13 1017.2 - 0.0
04/12:30am 18.8 15.9 9.6 55 4.9 SE 15 17 8 9 1017.2 - 0.0
04/12:00am 19.4 16.5 9.6 53 5.2 S 15 20 8 11 1017.1 1016.5 0.0
 
Date/Time
CST
Temp
°C
App
Temp
°C
Dew
Point
Rel
Hum
%
Delta-T
°C
Wind Press
QNH
hPa
Press
MSL
hPa
Rain
since 9 am
mm
Dir
 
Spd
km/h
Gust
km/h
Spd
kts
Gust
kts
03/11:30pm 19.9 17.7 9.5 51 5.6 ESE 11 13 6 7 1016.9 - 0.0
03/11:00pm 18.4 15.7 10.3 59 4.4 SE 15 17 8 9 1017.1 - 0.0
03/10:30pm 19.5 18.2 10.0 54 5.1 ESE 7 9 4 5 1016.8 - 0.0
03/10:00pm 19.6 18.4 10.3 55 5.0 ENE 7 15 4 8 1016.9 - 0.0
03/09:30pm 19.8 17.8 10.2 54 5.2 SSE 11 13 6 7 1016.5 - 0.0
03/09:00pm 20.4 18.8 10.2 52 5.5 SSE 9 11 5 6 1016.3 1015.7 0.0
03/08:30pm 21.1 19.8 10.0 49 6.0 SE 7 9 4 5 1016.3 - 0.0
03/08:00pm 22.8 21.7 9.9 44 7.1 SE 6 7 3 4 1015.8 - 0.0
03/07:30pm 24.6 23.1 9.0 37 8.5 SE 7 11 4 6 1015.3 - 0.0
03/07:00pm 27.6 25.6 8.5 30 10.5 ESE 9 11 5 6 1015.0 - 0.0
03/06:30pm 29.0 26.1 8.1 27 11.5 ESE 13 19 7 10 1014.8 - 0.0
03/06:00pm 30.4 25.3 7.6 24 12.5 ESE 24 32 13 17 1014.6 1014.1 0.0
03/05:30pm 31.3 27.0 7.7 23 13.0 ESE 20 32 11 17 1014.4 - 0.0
03/05:00pm 32.1 27.4 7.7 22 13.5 E 22 32 12 17 1014.2 - 0.0
03/04:30pm 32.5 27.3 7.4 21 13.8 E 24 35 13 19 1014.2 - 0.0
03/04:00pm 32.3 26.9 6.5 20 14.0 ESE 24 35 13 19 1014.1 - 0.0
03/03:30pm 32.5 27.4 5.9 19 14.3 ESE 22 30 12 16 1014.3 - 0.0
03/03:00pm 32.9 27.1 6.2 19 14.5 E 26 35 14 19 1014.5 1014.0 0.0
03/02:30pm 32.6 27.1 6.0 19 14.4 E 24 39 13 21 1014.9 - 0.0
03/02:18pm 32.3 26.2 6.5 20 14.0 ESE 28 46 15 25 1015.0 - 0.0
03/02:00pm 32.3 26.2 6.5 20 14.0 ESE 28 41 15 22 1015.3 - 0.0
03/01:30pm 32.0 26.7 8.3 23 13.2 E 26 35 14 19 1015.7 - 0.0
03/01:00pm 31.7 27.8 9.3 25 12.7 E 20 30 11 16 1016.5 - 0.0
03/12:30pm 31.2 27.3 9.4 26 12.3 ESE 20 33 11 18 1016.9 - 0.0
03/12:00pm 30.5 25.8 9.4 27 11.9 E 24 35 13 19 1017.5 1016.9 0.0
03/11:30am 30.1 25.5 9.6 28 11.6 ESE 24 33 13 18 1017.8 - 0.0
03/11:00am 30.1 26.6 10.1 29 11.4 E 19 30 10 16 1018.1 - 0.0
03/10:30am 28.8 25.9 10.9 33 10.3 ESE 17 32 9 17 1018.2 - 0.0
03/10:00am 26.6 24.9 12.3 41 8.3 ESE 13 19 7 10 1018.2 - 0.0
03/09:30am 24.1 23.4 13.3 51 6.3 E 9 15 5 8 1018.2 - 0.0
03/09:00am 22.3 21.9 13.1 56 5.3 SE 7 9 4 5 1017.9 1017.3 0.0
03/08:30am 19.8 18.9 12.6 63 4.1 SSE 9 13 5 7 1017.9 - 0.0
03/08:00am 17.2 15.7 11.9 71 2.9 SSE 11 17 6 9 1017.6 - 0.0
03/07:30am 15.1 13.9 11.5 79 1.9 S 9 11 5 6 1017.1 - 0.0
03/07:00am 14.7 12.8 11.7 82 1.6 SE 13 17 7 9 1016.8 - 0.0
03/06:30am 12.5 11.0 9.3 81 1.6 SE 7 9 4 5 1015.9 - 0.0
03/06:00am 13.3 12.1 9.5 78 1.9 S 6 9 3 5 1015.6 1015.1 0.0
03/05:30am 13.6 13.5 9.6 77 2.1 CALM 0 0 0 0 1015.4 - 0.0
03/05:00am 14.2 14.2 9.8 75 2.3 CALM 0 0 0 0 1015.6 - 0.0
03/04:30am 14.3 13.2 9.9 75 2.3 S 6 7 3 4 1015.8 - 0.0
03/04:00am 13.8 11.7 9.8 77 2.1 SSE 11 13 6 7 1016.2 - 0.0
03/03:30am 14.9 14.9 9.7 71 2.7 CALM 0 6 0 3 1016.3 - 0.0
03/03:00am 15.1 13.8 9.9 71 2.7 SSE 7 9 4 5 1016.4 1015.8 0.0
03/02:30am 14.8 13.4 9.6 71 2.7 SSE 7 9 4 5 1016.6 - 0.0
03/02:00am 15.6 13.9 9.9 69 3.0 SSE 9 9 5 5 1016.8 - 0.0
03/01:30am 16.0 14.6 9.7 66 3.3 S 7 7 4 4 1016.9 - 0.0
03/01:00am 16.2 14.9 9.8 66 3.4 S 7 7 4 4 1017.0 - 0.0
03/12:30am 17.7 15.9 9.6 59 4.3 SSE 9 11 5 6 1016.9 - 0.0
03/12:00am 19.6 18.3 9.8 53 5.3 E 7 11 4 6 1017.0 1016.4 0.0
 
Date/Time
CST
Temp
°C
App
Temp
°C
Dew
Point
Rel
Hum
%
Delta-T
°C
Wind Press
QNH
hPa
Press
MSL
hPa
Rain
since 9 am
mm
Dir
 
Spd
km/h
Gust
km/h
Spd
kts
Gust
kts
02/11:30pm 19.5 17.8 9.7 53 5.2 SE 9 13 5 7 1016.7 - 0.0
02/11:00pm 19.4 17.6 9.6 53 5.2 ESE 9 9 5 5 1016.7 - 0.0
02/10:30pm 19.0 17.2 9.5 54 5.1 SE 9 11 5 6 1016.6 - 0.0
02/10:00pm 19.5 18.1 9.7 53 5.2 ESE 7 9 4 5 1016.5 - 0.0
02/09:30pm 20.0 18.7 9.9 52 5.4 SE 7 9 4 5 1016.4 - 0.0
02/09:00pm 20.2 18.5 9.7 51 5.6 SE 9 9 5 5 1016.0 1015.5 0.0
02/08:30pm 20.5 18.8 9.7 50 5.8 SSE 9 11 5 6 1015.8 - 0.0
02/08:00pm 21.7 20.3 9.6 46 6.5 SSE 7 9 4 5 1015.5 - 0.0
02/07:30pm 23.2 21.6 8.9 40 7.7 SE 7 7 4 4 1015.2 - 0.0
02/07:00pm 26.0 24.2 8.0 32 9.7 SE 7 9 4 5 1014.7 - 0.0
02/06:30pm 27.8 25.4 7.1 27 11.1 ESE 9 11 5 6 1014.4 - 0.0
02/06:00pm 29.8 26.5 6.5 23 12.5 E 13 17 7 9 1014.2 1013.7 0.0
02/05:30pm 30.8 27.2 6.6 22 13.1 E 15 20 8 11 1014.2 - 0.0
02/05:00pm 31.6 26.9 5.9 20 13.8 SE 20 28 11 15 1013.9 - 0.0
02/04:30pm 31.6 27.3 5.2 19 14.0 E 17 30 9 16 1014.0 - 0.0
02/04:00pm 31.9 26.9 4.6 18 14.3 ESE 20 32 11 17 1014.0 - 0.0
02/03:30pm 31.9 27.5 4.6 18 14.3 SE 17 24 9 13 1014.1 - 0.0
02/03:00pm 32.0 26.3 4.7 18 14.4 E 24 33 13 18 1014.4 1013.9 0.0
02/02:30pm 32.5 27.2 5.1 18 14.6 ESE 22 39 12 21 1014.8 - 0.0
02/02:00pm 32.1 26.5 5.6 19 14.2 E 24 30 13 16 1015.3 - 0.0
02/01:30pm 32.5 26.8 6.7 20 14.1 ESE 26 37 14 20 1015.8 - 0.0
02/01:00pm 31.6 25.3 5.9 20 13.8 ESE 28 35 15 19 1016.4 - 0.0
02/12:30pm 30.5 25.2 7.0 23 12.8 ESE 24 37 13 20 1017.1 - 0.0
02/12:00pm 30.9 26.3 8.0 24 12.6 E 22 33 12 18 1017.4 1016.8 0.0
02/11:30am 30.2 25.3 8.6 26 12.0 ESE 24 33 13 18 1017.7 - 0.0
02/11:00am 29.7 25.4 9.3 28 11.4 E 22 32 12 17 1018.2 - 0.0
02/10:30am 28.5 24.4 10.2 32 10.4 E 22 30 12 16 1018.4 - 0.0
02/10:00am 27.4 24.2 11.4 37 9.2 NE 19 26 10 14 1018.4 - 0.0
02/09:30am 26.1 23.8 12.9 44 7.7 ENE 17 24 9 13 1018.3 - 0.0
02/09:00am 22.9 23.2 14.5 59 5.0 E 6 9 3 5 1018.2 1017.6 0.0
02/08:30am 19.3 18.8 13.7 70 3.2 SSE 9 9 5 5 1018.0 - 0.0
02/08:00am 16.0 14.7 12.4 79 2.0 SSE 11 13 6 7 1017.7 - 0.0
02/07:30am 13.2 11.4 10.9 86 1.2 S 11 11 6 6 1017.3 - 0.0
02/07:00am 13.4 12.7 10.2 81 1.7 SSE 4 7 2 4 1016.7 - 0.0
02/06:30am 14.1 13.1 10.9 81 1.7 SSE 7 9 4 5 1016.6 - 0.0
02/06:00am 13.8 12.4 11.0 83 1.5 SSE 9 9 5 5 1016.3 1015.7 0.0
02/05:30am 13.8 12.4 10.8 82 1.6 SSE 9 11 5 6 1016.0 - 0.0
02/05:00am 14.4 13.0 11.0 80 1.8 SSE 9 9 5 5 1015.9 - 0.0
02/04:30am 14.6 13.7 11.2 80 1.8 SSE 7 7 4 4 1015.9 - 0.0
02/04:00am 14.8 14.0 11.6 81 1.7 SE 7 9 4 5 1015.9 - 0.0
02/03:30am 14.8 13.5 11.2 79 1.9 SE 9 9 5 5 1015.8 - 0.0
02/03:00am 16.2 15.4 11.6 74 2.5 ESE 7 7 4 4 1015.7 1015.2 0.0
02/02:30am 16.7 16.1 11.6 72 2.8 SE 6 7 3 4 1015.7 - 0.0
02/02:00am 17.6 16.3 11.2 66 3.5 SE 9 9 5 5 1015.8 - 0.0
02/01:30am 19.1 18.5 11.7 62 4.1 SE 6 6 3 3 1015.9 - 0.0
02/01:00am 18.6 17.3 11.4 63 4.0 SSE 9 11 5 6 1016.0 - 0.0
02/12:30am 18.8 17.2 11.6 63 4.0 ESE 11 13 6 7 1015.9 - 0.0
02/12:00am 18.5 17.2 11.3 63 3.9 ESE 9 11 5 6 1015.8 1015.3 0.0
 
Date/Time
CST
Temp
°C
App
Temp
°C
Dew
Point
Rel
Hum
%
Delta-T
°C
Wind Press
QNH
hPa
Press
MSL
hPa
Rain
since 9 am
mm
Dir
 
Spd
km/h
Gust
km/h
Spd
kts
Gust
kts
01/11:30pm 17.1 15.4 11.2 68 3.2 SE 11 15 6 8 1015.7 - 0.0
01/11:00pm 18.3 17.6 11.4 64 3.8 SSE 6 7 3 4 1015.6 - 0.0
01/10:30pm 19.1 19.5 11.2 60 4.3 CALM 0 0 0 0 1015.5 - 0.0
01/10:00pm 19.4 19.4 11.2 59 4.5 SE 2 7 1 4 1015.6 - 0.0
01/09:30pm 20.4 20.1 11.3 56 5.0 SSE 4 7 2 4 1015.4 - 0.0

Other Formats:

Comma delimited format used in spreadsheet applications
http://www.bom.gov.au/fwo/IDD60801/IDD60801.94131.axf

JavaScript Object Notation format (JSON) in row-major order
http://www.bom.gov.au/fwo/IDD60801/IDD60801.94131.json